Carson Sink, Nevada Weather observations

Data are for observation ending at time listed.
 Day   Time    Ave.   Ave.  Ave.  Vector   Max.   Stn.    Total    Solar   Ave.  
  of    of     Air    Rel.  Wind   Wind    Wind   Baro.  Precip.   Rad.    Soil  
Year   Day     Temp.  Hum.  Speed  Dir.    Gust   Pres.                    Temp. 
2016   (PST)    F      %     mph   deg.    mph     mb.     in.     W/m2     F   
------------------------------------------------------------------------------
  36   11:30   35.6    82    4.7   210      7.5   898.0    0.00     554     34.5
  36   11:40   35.7    81    5.1   218      7.8   897.9    0.00     549     34.8
  36   11:50   35.6    82    5.2   224      8.3   897.8    0.00     531     35.2
  36   12:00   35.9    81    5.6   226      8.8   897.7    0.00     471     35.6
  36   12:10   36.2    81    6.2   239      9.6   897.6    0.00     541     35.9
  36   12:20   36.6    80    6.4   231     11.4   897.5    0.00     558     36.3
  36   12:30   37.1    79    6.2   233      9.3   897.4    0.00     563     36.7
  36   12:40   37.4    78    7.8   236     11.8   897.4    0.00     555     37.0
  36   12:50   37.3    77    7.8   243     11.8   897.3    0.00     544     37.4
  36   13:00   37.7    76    5.2   244      8.9   897.1    0.00     536     37.7
  36   13:10   38.1    75    3.6   230      8.3   897.0    0.00     526     38.1
  36   13:20   38.6    75    4.0   226      6.7   896.9    0.00     489     38.5
  36   13:30   39.3    74    3.3   191      7.7   896.8    0.00     440     38.8
  36   13:40   39.4    73    2.5   203      4.7   896.8    0.00     482     39.2
  36   13:50   40.0    74    2.5   213      5.6   896.9    0.00     482     39.5
  36   14:00   40.7    73    2.5   206      5.5   896.9    0.00     460     39.8
  36   14:10   40.4    72    2.9   260      6.0   896.8    0.00     441     40.2
  36   14:20   41.1    72    1.8   208      5.1   896.8    0.00     414     40.5
  36   14:30   41.1    71    2.5   209      5.6   896.7    0.00     378     40.8
  36   14:40   41.2    71    2.3   141      4.1   896.7    0.00     371     41.1
  36   14:50   41.4    72    1.7   174      3.1   896.7    0.00     341     41.4
  36   15:00   42.2    70    2.9   219      5.9   896.8    0.00     277     41.6
  36   15:10   41.6    70    1.1   108      5.0   896.7    0.00     246     41.9
  36   15:20   41.5    70    2.1   169      4.5   896.4    0.00     226     42.1
  36   15:30   42.2    69    1.1   166      3.1   896.4    0.00     218     42.3
  36   15:40   41.6    69    1.3   118      3.7   896.3    0.00     201     42.5
  36   15:50   41.1    69    1.9   121      4.6   896.2    0.00     186     42.6
  36   16:00   41.6    69    0.8   116      3.5   896.1    0.00     152     42.8
  36   16:10   41.4    69    1.9   123      3.5   896.1    0.00     137     42.9
  36   16:20   41.2    70    2.8    50      5.0   896.1    0.00     125     42.9
  36   16:30   41.0    70    2.1    76      3.4   895.9    0.00      77     43.0
  36   16:40   40.8    70    1.1    50      2.6   895.9    0.00      54     43.0
  36   16:50   40.8    71    0.5    74      2.0   895.8    0.00      40     43.0
  36   17:00   41.0    71    0.5   246      1.9   895.7    0.00      26     43.0
  36   17:10   41.0    71    0.3   254      0.9   895.8    0.00      13     43.0
  36   17:20   40.6    71    0.3   254      1.1   895.8    0.00       5     42.9
  36   17:30   40.4    71    1.9   272      2.7   895.8    0.00       2     42.9
  36   17:40   40.3    71    1.3   276      2.0   895.8    0.00       0     42.8
  36   17:50   40.1    71    0.4   276      2.0   895.9    0.00       0     42.7
  36   18:00   40.0    71    1.5   276      2.6   896.0    0.00       0     42.6
  36   18:10   39.9    71    0.0     0      0.0   895.9    0.00       0     42.4
  36   18:20   39.8    72    1.8   254      4.0   896.0    0.00       0     42.3
  36   18:30   39.6    72    3.0   235      4.4   896.0    0.00       0     42.2
  36   18:40   39.1    73    2.1   210      2.6   896.0    0.00       0     42.0
  36   18:50   38.8    73    1.3   214      1.8   896.1    0.00       0     41.9
  36   19:00   38.3    74    1.5   214      2.1   896.0    0.00       0     41.8
  36   19:10   38.3    74    2.2   214      2.8   896.0    0.00       0     41.6
  36   19:20   37.8    74    2.4   187      2.7   896.0    0.00       0     41.5
  36   19:30   37.2    75    3.0   161      3.3   895.9    0.00       1     41.3
  36   19:40   36.5    76    4.1   154      4.7   895.9    0.00       1     41.1
  36   19:50   35.6    78    4.3   151      5.5   895.8    0.00       1     41.0
  36   20:00   35.5    80    5.0   141      5.7   895.6    0.00       1     40.8
  36   20:10   35.1    80    4.2   146      5.5   895.5    0.00       1     40.7
  36   20:20   35.0    81    4.0   138      5.2   895.4    0.00       1     40.5
  36   20:30   34.5    82    3.2   178      6.5   895.6    0.00       2     40.4
  36   20:40   33.5    82    4.9   226      5.9   895.8    0.00       1     40.2
  36   20:50   33.3    83    5.2   255      7.7   896.0    0.00       1     40.0
  36   21:00   32.4    83    6.2   311      8.4   896.2    0.00       1     39.9
  36   21:10   32.1    84    4.8   342      6.1   896.2    0.00       1     39.8
  36   21:20   32.9    85    2.9    11      4.5   896.2    0.00       1     39.6
  36   21:30   33.6    85    1.5    45      2.9   896.3    0.00       2     39.4
  36   21:40   32.4    84    1.2    90      2.9   896.4    0.00       2     39.3
  36   21:50   30.8    84    4.1   120      5.0   896.5    0.00       2     39.1
  36   22:00   30.5    86    5.0   132      6.6   896.7    0.00       2     39.0
  36   22:10   30.4    86    5.3   157      6.1   896.8    0.00       2     38.9
  36   22:20   30.2    86    4.5   164      5.3   896.7    0.00       2     38.7
  36   22:30   30.8    87    4.5   180      6.1   896.8    0.00       2     38.6
  36   22:40   30.0    86    4.9   173      6.1   896.7    0.00       2     38.4
  36   22:50   29.7    87    5.1   174      6.4   896.8    0.00       2     38.3
  36   23:00   30.3    87    5.1   182      6.4   896.8    0.00       2     38.2
  36   23:10   30.3    86    4.5   186      6.1   896.8    0.00       1     38.0
  36   23:20   29.4    86    4.7   160      5.5   896.8    0.00       1     37.9
  36   23:30   29.5    87    4.4   171      5.7   896.8    0.00       1     37.8
  36   23:40   29.9    86    3.9   166      5.5   896.9    0.00       1     37.7
  36   23:50   29.8    86    3.8   310      8.8   896.9    0.00       1     37.6
  37    0:00   30.0    86    2.8   319      5.8   896.9    0.00       1     37.4
  37    0:10   29.9    86    3.8   325      6.1   896.9    0.00       1     37.3
  37    0:20   29.1    86    3.2   352      4.7   896.8    0.00       2     37.2
  37    0:30   29.0    87    3.4   354      3.9   896.8    0.00       2     37.1
  37    0:40   29.0    87    2.2   355      2.9   896.8    0.00       2     36.9
  37    0:50   29.6    87    1.0   345      2.0   896.8    0.00       2     36.8
  37    1:00   28.5    86    2.2   345      3.8   896.9    0.00       2     36.7
  37    1:10   27.9    88    1.5    51      2.4   896.8    0.00       2     36.6
  37    1:20   28.1    87    2.1    80      3.9   896.8    0.00       2     36.5
  37    1:30   27.3    88    2.7    90      3.5   896.9    0.00       2     36.4
  37    1:40   27.3    88    3.4   101      4.2   896.9    0.00       2     36.4
  37    1:50   27.3    88    4.2   126      5.0   896.9    0.00       2     36.3
  37    2:00   27.7    88    2.7   103      3.4   896.9    0.00       2     36.2
  37    2:10   27.9    89    3.7   105      4.4   896.7    0.00       2     36.2
  37    2:20   28.4    89    2.7    80      3.7   896.5    0.00       2     36.1
  37    2:30   28.5    89    4.0    62      5.1   896.3    0.00       2     36.1
  37    2:40   28.2    88    4.0     9      5.9   896.2    0.00       2     36.0
  37    2:50   26.8    89    3.8   343      4.4   896.3    0.00       2     35.9
  37    3:00   25.9    89    4.9   331      5.7   896.2    0.00       2     35.8
  37    3:10   25.6    89    4.7   331      5.4   896.2    0.00       2     35.8
  37    3:20   25.8    90    2.5   336      3.8   896.0    0.00       2     35.7
  37    3:30   26.0    90    1.0   337      1.4   895.9    0.00       2     35.6
  37    3:40   26.1    90    0.9   325      2.0   895.9    0.00       2     35.6
  37    3:50   25.6    89    0.8   106      2.0   895.9    0.00       2     35.5
  37    4:00   25.2    90    0.2   120      0.9   896.0    0.00       2     35.4
  37    4:10   24.8    90    1.4   144      2.7   896.1    0.00       2     35.4
  37    4:20   25.3    90    2.6   158      3.2   896.1    0.00       2     35.3
  37    4:30   25.6    90    2.1   146      4.4   896.2    0.00       2     35.3
  37    4:40   26.0    90    1.6    81      3.2   896.2    0.00       2     35.2
  37    4:50   26.6    90    1.0    84      2.5   896.3    0.00       2     35.2
  37    5:00   26.3    90    1.5   116      2.2   896.5    0.00       2     35.1
  37    5:10   26.8    90    1.4   113      3.9   896.4    0.00       2     35.1
  37    5:20   27.1    90    3.7    98      4.9   896.3    0.00       2     35.0
  37    5:30   27.0    90    2.8    88      3.8   896.4    0.00       2     35.0
  37    5:40   26.9    89    3.0   108      3.9   896.4    0.00       2     34.9
  37    5:50   26.7    90    1.9   125      2.7   896.4    0.00       2     34.9
  37    6:00   26.7    90    2.2   195      3.1   896.4    0.00       2     34.8
  37    6:10   26.2    90    3.5   293      5.1   896.5    0.00       2     34.8
  37    6:20   25.1    89    4.9   322      5.6   896.7    0.00       2     34.7
  37    6:30   24.8    90    3.2   320      5.0   896.5    0.00       2     34.7
  37    6:40   25.2    90    2.3   323      4.7   896.5    0.00       2     34.6
  37    6:50   24.3    90    3.8   314      4.7   896.7    0.00       3     34.5
  37    7:00   24.5    90    4.1   296      5.0   896.7    0.00       5     34.5
  37    7:10   25.0    90    2.7   252      4.5   896.8    0.00      14     34.5
  37    7:20   24.5    90    2.4   121      3.2   896.8    0.00      36     34.4
  37    7:30   25.0    90    2.7   141      3.4   896.7    0.00      88     34.4
  37    7:40   25.8    90    2.3   143      3.1   896.8    0.00     128     34.3
  37    7:50   26.2    90    2.6   100      3.4   896.8    0.00     155     34.3
  37    8:00   27.1    90    1.7   105      3.4   897.0    0.00     163     34.2
  37    8:10   28.0    90    1.1   149      2.3   897.1    0.00     179     34.2
  37    8:20   28.1    89    1.3   215      2.5   897.1    0.00     157     34.2
  37    8:30   29.3    90    0.2   308      1.8   897.3    0.00     168     34.1
  37    8:40   28.9    89    1.6   322      2.6   897.5    0.00     229     34.1
  37    8:50   28.9    89    1.9   306      3.0   897.5    0.00     270     34.1
  37    9:00   29.1    89    1.7    43      2.6   897.5    0.00     249     34.1
  37    9:10   29.4    89    1.6    36      2.8   897.5    0.00     307     34.0
  37    9:20   30.0    89    2.4    74      3.9   897.5    0.00     336     34.0
  37    9:30   30.5    89    2.6   118      3.9   897.5    0.00     370     34.0
  37    9:40   31.5    88    2.5   159      4.3   897.5    0.00     414     34.0
  37    9:50   32.8    88    2.3   213      3.8   897.5    0.00     409     34.1
  37   10:00   32.9    88    1.2   233      2.9   897.6    0.00     425     34.1
  37   10:10   34.9    88    0.8   173      2.3   897.6    0.00     452     34.1
  37   10:20   35.1    87    1.4   348      3.2   897.6    0.00     481     34.2
  37   10:30   34.6    86    2.5   270      4.3   897.7    0.00     480     34.3
  37   10:40   35.0    86    3.0   290      4.7   897.7    0.00     446     34.4
  37   10:50   35.4    85    2.4   278      4.7   897.7    0.00     437     34.7
  37   11:00   36.3    85    1.3   240      3.5   897.5    0.00     505     34.9
  37   11:10   37.6    84    1.5   228      3.3   897.4    0.00     534     35.3
  37   11:20   37.3    83    2.3    46      3.5   897.2    0.00     563     35.6

Return to Carson Sink graphs page.


Western Regional Climate Center,wrcc@dri.edu